This is the latest recevied weather packets stored in our database for station/object KD5GAT-51. If no packets are shown the sender has not sent any weather packets the latest 10 day(s).
| Time | Temp. | Humidity | Pressure | Rain* | Wind** | Luminosity | Snow |
|---|---|---|---|---|---|---|---|
| 1787969782 | 74° F | 100% | 765.5 mmHg | - | - | - | - |
| 1787969237 | 77° F | 100% | 765.5 mmHg | - | - | - | - |
| 1787968337 | 85° F | 100% | 763.9 mmHg | - | - | - | - |
| 1787967437 | 88° F | 100% | 762.8 mmHg | - | - | - | - |
| 1787966536 | 91° F | 91% | 762.4 mmHg | - | - | - | - |
| 1787965636 | 92° F | 81% | 762.5 mmHg | - | - | - | - |
| 1787964736 | 94° F | 60% | 762.4 mmHg | - | - | - | - |
| 1787963836 | 95° F | 48% | 761.9 mmHg | - | - | - | - |
| 1787962936 | 96° F | 46% | 761.8 mmHg | - | - | - | - |
| 1787962036 | 97° F | 44% | 761.8 mmHg | - | - | - | - |
| 1787961135 | 99° F | 41% | 761.5 mmHg | - | - | - | - |
| 1787960235 | 100° F | 39% | 761.5 mmHg | - | - | - | - |
| 1787959335 | 105° F | 35% | 761.4 mmHg | - | - | - | - |
| 1787958435 | 106° F | 35% | 761.6 mmHg | - | - | - | - |
| 1787957535 | 106° F | 33% | 761.5 mmHg | - | - | - | - |
| 1787956634 | 104° F | 36% | 761.5 mmHg | - | - | - | - |
| 1787955734 | 105° F | 35% | 761.5 mmHg | - | - | - | - |
| 1787954834 | 103° F | 38% | 761.8 mmHg | - | - | - | - |
| 1787953934 | 101° F | 40% | 761.8 mmHg | - | - | - | - |
| 1787953034 | 103° F | 37% | 762 mmHg | - | - | - | - |
| 1787952134 | 105° F | 36% | 762.1 mmHg | - | - | - | - |
| 1787951233 | 103° F | 38% | 762.2 mmHg | - | - | - | - |
| 1787950333 | 108° F | 34% | 762.4 mmHg | - | - | - | - |
| 1787949433 | 108° F | 34% | 762.7 mmHg | - | - | - | - |
| 1787948533 | 107° F | 36% | 763 mmHg | - | - | - | - |
* Rain since midnight (hover to see other rain measurements)
** Current wind speed in m/s (hover to see current wind gust speed)